sensor_id;sensor_type;location;lat;lon;timestamp;pressure;altitude;pressure_sealevel;temperature;humidity
41467;BME280;27205;53.690;19.948;2022-09-29T00:00:37;98228.88;;;10.19;89.33
41467;BME280;27205;53.690;19.948;2022-09-29T00:06:00;98228.30;;;10.16;89.16
41467;BME280;27205;53.690;19.948;2022-09-29T00:11:09;98224.23;;;10.09;89.15
41467;BME280;27205;53.690;19.948;2022-09-29T00:16:12;98221.34;;;10.06;89.40
41467;BME280;27205;53.690;19.948;2022-09-29T00:21:17;98222.88;;;10.10;89.56
41467;BME280;27205;53.690;19.948;2022-09-29T00:26:23;98223.15;;;10.15;89.72
41467;BME280;27205;53.690;19.948;2022-09-29T00:31:28;98222.24;;;10.15;89.65
41467;BME280;27205;53.690;19.948;2022-09-29T00:36:31;98226.90;;;10.16;89.96
41467;BME280;27205;53.690;19.948;2022-09-29T00:41:37;98230.80;;;10.18;89.91
41467;BME280;27205;53.690;19.948;2022-09-29T00:47:00;98227.20;;;10.15;89.86
41467;BME280;27205;53.690;19.948;2022-09-29T00:52:56;98225.52;;;10.08;89.84
41467;BME280;27205;53.690;19.948;2022-09-29T00:57:42;98222.44;;;10.08;90.16
41467;BME280;27205;53.690;19.948;2022-09-29T01:02:52;98226.64;;;10.08;90.24
41467;BME280;27205;53.690;19.948;2022-09-29T01:08:03;98227.19;;;10.08;90.27
41467;BME280;27205;53.690;19.948;2022-09-29T01:13:10;98231.89;;;10.10;90.41
41467;BME280;27205;53.690;19.948;2022-09-29T01:18:14;98225.39;;;10.06;90.29
41467;BME280;27205;53.690;19.948;2022-09-29T01:34:47;98223.00;;;9.71;90.20
41467;BME280;27205;53.690;19.948;2022-09-29T01:40:14;98227.65;;;9.57;90.23
41467;BME280;27205;53.690;19.948;2022-09-29T01:45:32;98230.73;;;9.40;90.21
41467;BME280;27205;53.690;19.948;2022-09-29T01:50:47;98236.30;;;9.26;90.01
41467;BME280;27205;53.690;19.948;2022-09-29T01:55:56;98236.59;;;9.19;90.23
41467;BME280;27205;53.690;19.948;2022-09-29T02:01:05;98239.60;;;9.12;90.45
41467;BME280;27205;53.690;19.948;2022-09-29T02:06:19;98237.85;;;9.14;90.85
41467;BME280;27205;53.690;19.948;2022-09-29T02:11:25;98241.39;;;9.21;90.82
41467;BME280;27205;53.690;19.948;2022-09-29T02:16:33;98246.28;;;9.24;91.02
41467;BME280;27205;53.690;19.948;2022-09-29T02:21:39;98250.98;;;9.27;91.25
41467;BME280;27205;53.690;19.948;2022-09-29T02:26:42;98252.37;;;9.33;91.33
41467;BME280;27205;53.690;19.948;2022-09-29T02:31:47;98255.95;;;9.37;91.40
41467;BME280;27205;53.690;19.948;2022-09-29T02:37:08;98256.85;;;9.40;91.33
41467;BME280;27205;53.690;19.948;2022-09-29T02:47:42;98269.54;;;9.40;91.79
41467;BME280;27205;53.690;19.948;2022-09-29T03:03:50;98286.84;;;9.37;91.84
41467;BME280;27205;53.690;19.948;2022-09-29T03:08:54;98290.37;;;9.36;91.85
41467;BME280;27205;53.690;19.948;2022-09-29T03:13:57;98295.23;;;9.34;91.97
41467;BME280;27205;53.690;19.948;2022-09-29T03:19:02;98299.13;;;9.31;92.15
41467;BME280;27205;53.690;19.948;2022-09-29T03:24:07;98305.71;;;9.29;92.61
41467;BME280;27205;53.690;19.948;2022-09-29T03:29:10;98308.61;;;9.24;93.10
41467;BME280;27205;53.690;19.948;2022-09-29T03:34:13;98312.64;;;9.22;93.24
41467;BME280;27205;53.690;19.948;2022-09-29T03:39:17;98309.51;;;9.21;93.33
41467;BME280;27205;53.690;19.948;2022-09-29T03:44:21;98314.91;;;9.18;93.20
41467;BME280;27205;53.690;19.948;2022-09-29T03:49:24;98316.70;;;9.13;93.58
41467;BME280;27205;53.690;19.948;2022-09-29T03:54:28;98321.89;;;9.10;93.69
41467;BME280;27205;53.690;19.948;2022-09-29T03:59:31;98319.13;;;9.06;93.86
41467;BME280;27205;53.690;19.948;2022-09-29T04:04:34;98317.75;;;9.03;93.87
41467;BME280;27205;53.690;19.948;2022-09-29T04:09:38;98325.53;;;9.03;94.06
41467;BME280;27205;53.690;19.948;2022-09-29T04:14:41;98325.88;;;9.04;94.13
41467;BME280;27205;53.690;19.948;2022-09-29T04:19:45;98327.33;;;9.07;94.44
41467;BME280;27205;53.690;19.948;2022-09-29T04:24:48;98334.71;;;9.08;94.13
41467;BME280;27205;53.690;19.948;2022-09-29T04:29:53;98339.02;;;9.12;94.40
41467;BME280;27205;53.690;19.948;2022-09-29T04:34:56;98346.27;;;9.16;94.58
41467;BME280;27205;53.690;19.948;2022-09-29T04:40:00;98348.01;;;9.20;94.71
41467;BME280;27205;53.690;19.948;2022-09-29T04:45:05;98351.10;;;9.22;94.81
41467;BME280;27205;53.690;19.948;2022-09-29T04:50:09;98352.51;;;9.25;95.09
41467;BME280;27205;53.690;19.948;2022-09-29T04:55:12;98361.60;;;9.29;95.07
41467;BME280;27205;53.690;19.948;2022-09-29T05:00:16;98367.95;;;9.32;95.23
41467;BME280;27205;53.690;19.948;2022-09-29T05:05:20;98362.20;;;9.36;95.35
41467;BME280;27205;53.690;19.948;2022-09-29T05:10:25;98364.95;;;9.41;95.14
41467;BME280;27205;53.690;19.948;2022-09-29T05:15:28;98370.16;;;9.44;95.31
41467;BME280;27205;53.690;19.948;2022-09-29T05:20:32;98371.91;;;9.46;95.17
41467;BME280;27205;53.690;19.948;2022-09-29T05:25:44;98381.10;;;9.53;95.40
41467;BME280;27205;53.690;19.948;2022-09-29T05:30:48;98379.70;;;9.61;95.03
41467;BME280;27205;53.690;19.948;2022-09-29T05:35:51;98384.95;;;9.68;95.55
41467;BME280;27205;53.690;19.948;2022-09-29T05:40:54;98389.64;;;9.69;95.33
41467;BME280;27205;53.690;19.948;2022-09-29T05:45:59;98397.19;;;9.72;95.33
41467;BME280;27205;53.690;19.948;2022-09-29T05:51:10;98396.83;;;9.74;95.77
41467;BME280;27205;53.690;19.948;2022-09-29T05:56:17;98403.74;;;9.77;95.71
41467;BME280;27205;53.690;19.948;2022-09-29T06:01:24;98409.88;;;9.77;95.88
41467;BME280;27205;53.690;19.948;2022-09-29T06:06:29;98416.34;;;9.80;95.87
41467;BME280;27205;53.690;19.948;2022-09-29T06:11:32;98419.17;;;9.85;95.90
41467;BME280;27205;53.690;19.948;2022-09-29T06:16:36;98424.63;;;9.92;95.89
41467;BME280;27205;53.690;19.948;2022-09-29T06:21:39;98426.33;;;9.94;96.17
41467;BME280;27205;53.690;19.948;2022-09-29T06:26:43;98434.73;;;9.95;96.26
41467;BME280;27205;53.690;19.948;2022-09-29T06:31:48;98440.02;;;9.89;96.32
41467;BME280;27205;53.690;19.948;2022-09-29T06:36:53;98446.42;;;9.85;96.24
41467;BME280;27205;53.690;19.948;2022-09-29T06:42:14;98449.02;;;9.90;96.42
41467;BME280;27205;53.690;19.948;2022-09-29T06:47:18;98443.08;;;9.93;96.49
41467;BME280;27205;53.690;19.948;2022-09-29T06:52:21;98450.42;;;9.92;96.32
41467;BME280;27205;53.690;19.948;2022-09-29T06:57:30;98460.85;;;10.02;96.56
41467;BME280;27205;53.690;19.948;2022-09-29T07:02:34;98462.14;;;10.07;96.46
41467;BME280;27205;53.690;19.948;2022-09-29T07:07:38;98469.65;;;10.12;96.33
41467;BME280;27205;53.690;19.948;2022-09-29T07:12:41;98470.78;;;10.26;96.40
41467;BME280;27205;53.690;19.948;2022-09-29T07:17:51;98484.65;;;10.45;96.18
41467;BME280;27205;53.690;19.948;2022-09-29T07:22:55;98485.42;;;10.63;96.01
41467;BME280;27205;53.690;19.948;2022-09-29T07:27:58;98490.17;;;10.81;95.89
41467;BME280;27205;53.690;19.948;2022-09-29T07:33:01;98496.10;;;10.92;95.63
41467;BME280;27205;53.690;19.948;2022-09-29T07:38:05;98498.25;;;11.03;95.26
41467;BME280;27205;53.690;19.948;2022-09-29T07:43:09;98500.90;;;11.17;95.21
41467;BME280;27205;53.690;19.948;2022-09-29T07:48:12;98508.66;;;11.38;94.65
41467;BME280;27205;53.690;19.948;2022-09-29T07:53:15;98511.48;;;11.55;94.58
41467;BME280;27205;53.690;19.948;2022-09-29T07:58:19;98517.45;;;11.73;94.06
41467;BME280;27205;53.690;19.948;2022-09-29T08:03:22;98526.97;;;11.91;94.22
41467;BME280;27205;53.690;19.948;2022-09-29T08:08:28;98525.46;;;12.04;93.80
41467;BME280;27205;53.690;19.948;2022-09-29T08:13:31;98522.60;;;12.12;92.98
41467;BME280;27205;53.690;19.948;2022-09-29T08:18:35;98519.31;;;12.14;93.00
41467;BME280;27205;53.690;19.948;2022-09-29T08:23:41;98531.25;;;12.11;92.23
41467;BME280;27205;53.690;19.948;2022-09-29T08:28:46;98539.63;;;12.15;91.77
41467;BME280;27205;53.690;19.948;2022-09-29T08:34:03;98551.39;;;12.39;91.80
41467;BME280;27205;53.690;19.948;2022-09-29T08:39:09;98552.84;;;12.77;91.47
41467;BME280;27205;53.690;19.948;2022-09-29T08:44:31;98562.73;;;13.17;91.06
41467;BME280;27205;53.690;19.948;2022-09-29T08:56:01;98573.91;;;13.25;89.47
41467;BME280;27205;53.690;19.948;2022-09-29T09:12:00;98587.70;;;12.72;87.58
41467;BME280;27205;53.690;19.948;2022-09-29T09:33:18;98609.30;;;13.62;86.83
41467;BME280;27205;53.690;19.948;2022-09-29T09:38:49;98618.65;;;14.24;85.81
41467;BME280;27205;53.690;19.948;2022-09-29T09:44:02;98624.79;;;14.35;85.51
41467;BME280;27205;53.690;19.948;2022-09-29T09:49:20;98631.31;;;14.16;84.88
41467;BME280;27205;53.690;19.948;2022-09-29T09:54:47;98634.33;;;13.92;84.42
41467;BME280;27205;53.690;19.948;2022-09-29T10:00:13;98634.70;;;13.71;84.33
41467;BME280;27205;53.690;19.948;2022-09-29T10:05:23;98643.77;;;13.67;83.77
41467;BME280;27205;53.690;19.948;2022-09-29T10:10:29;98650.77;;;13.65;83.54
41467;BME280;27205;53.690;19.948;2022-09-29T10:15:41;98656.67;;;13.59;83.29
41467;BME280;27205;53.690;19.948;2022-09-29T10:20:47;98659.16;;;13.58;83.04
41467;BME280;27205;53.690;19.948;2022-09-29T10:26:13;98664.87;;;13.80;82.81
41467;BME280;27205;53.690;19.948;2022-09-29T10:31:24;98675.18;;;14.24;82.82
41467;BME280;27205;53.690;19.948;2022-09-29T10:36:32;98677.81;;;14.51;82.57
41467;BME280;27205;53.690;19.948;2022-09-29T10:41:49;98686.99;;;14.40;81.84
41467;BME280;27205;53.690;19.948;2022-09-29T10:46:56;98691.61;;;14.38;81.92
41467;BME280;27205;53.690;19.948;2022-09-29T10:52:21;98696.85;;;14.49;81.74
41467;BME280;27205;53.690;19.948;2022-09-29T10:57:27;98711.35;;;14.38;80.55
41467;BME280;27205;53.690;19.948;2022-09-29T11:02:34;98717.49;;;14.32;80.24
41467;BME280;27205;53.690;19.948;2022-09-29T11:07:46;98719.23;;;14.65;79.96
41467;BME280;27205;53.690;19.948;2022-09-29T11:12:50;98726.92;;;14.89;78.60
41467;BME280;27205;53.690;19.948;2022-09-29T11:17:55;98723.98;;;14.74;77.52
41467;BME280;27205;53.690;19.948;2022-09-29T11:39:31;98744.66;;;14.83;77.00
41467;BME280;27205;53.690;19.948;2022-09-29T11:44:53;98748.13;;;14.59;76.41
41467;BME280;27205;53.690;19.948;2022-09-29T12:06:29;98768.30;;;14.78;75.34
41467;BME280;27205;53.690;19.948;2022-09-29T12:12:09;98778.92;;;15.33;74.11
41467;BME280;27205;53.690;19.948;2022-09-29T12:17:35;98782.14;;;15.85;73.13
41467;BME280;27205;53.690;19.948;2022-09-29T12:22:42;98785.24;;;16.15;73.20
41467;BME280;27205;53.690;19.948;2022-09-29T12:27:48;98791.48;;;15.84;72.00
41467;BME280;27205;53.690;19.948;2022-09-29T12:33:14;98798.41;;;15.74;72.51
41467;BME280;27205;53.690;19.948;2022-09-29T12:38:31;98800.91;;;15.49;71.80
41467;BME280;27205;53.690;19.948;2022-09-29T12:43:42;98807.11;;;15.12;72.00
41467;BME280;27205;53.690;19.948;2022-09-29T12:49:02;98811.48;;;14.98;72.12
41467;BME280;27205;53.690;19.948;2022-09-29T12:54:32;98820.08;;;14.74;71.93
41467;BME280;27205;53.690;19.948;2022-09-29T13:00:04;98827.08;;;14.30;72.00
41467;BME280;27205;53.690;19.948;2022-09-29T13:21:33;98828.55;;;14.12;71.29
41467;BME280;27205;53.690;19.948;2022-09-29T13:32:03;98839.15;;;14.33;71.18
41467;BME280;27205;53.690;19.948;2022-09-29T13:37:18;98841.59;;;14.20;71.40
41467;BME280;27205;53.690;19.948;2022-09-29T13:42:26;98844.88;;;13.98;71.37
41467;BME280;27205;53.690;19.948;2022-09-29T13:47:32;98847.23;;;13.94;71.56
41467;BME280;27205;53.690;19.948;2022-09-29T13:52:39;98852.13;;;14.19;71.59
41467;BME280;27205;53.690;19.948;2022-09-29T13:57:50;98856.96;;;14.19;71.65
41467;BME280;27205;53.690;19.948;2022-09-29T14:03:03;98863.36;;;14.13;71.60
41467;BME280;27205;53.690;19.948;2022-09-29T14:18:38;98871.85;;;14.80;70.61
41467;BME280;27205;53.690;19.948;2022-09-29T14:28:51;98884.65;;;15.71;69.58
41467;BME280;27205;53.690;19.948;2022-09-29T14:33:55;98894.71;;;16.05;69.24
41467;BME280;27205;53.690;19.948;2022-09-29T14:39:00;98900.52;;;16.05;68.32
41467;BME280;27205;53.690;19.948;2022-09-29T14:44:26;98901.75;;;15.60;67.25
41467;BME280;27205;53.690;19.948;2022-09-29T15:05:44;98918.23;;;13.23;68.91
41467;BME280;27205;53.690;19.948;2022-09-29T15:10:48;98925.45;;;12.96;69.19
41467;BME280;27205;53.690;19.948;2022-09-29T15:16:10;98929.48;;;12.68;69.52
41467;BME280;27205;53.690;19.948;2022-09-29T15:26:43;98943.56;;;12.14;70.54
41467;BME280;27205;53.690;19.948;2022-09-29T15:31:48;98948.49;;;12.03;70.98
41467;BME280;27205;53.690;19.948;2022-09-29T15:36:54;98954.93;;;11.89;71.01
41467;BME280;27205;53.690;19.948;2022-09-29T15:41:59;98962.23;;;11.79;71.40
41467;BME280;27205;53.690;19.948;2022-09-29T15:47:04;98974.02;;;11.73;71.58
41467;BME280;27205;53.690;19.948;2022-09-29T15:52:12;98983.24;;;11.62;72.03
41467;BME280;27205;53.690;19.948;2022-09-29T16:08:17;98993.98;;;13.58;72.34
41467;BME280;27205;53.690;19.948;2022-09-29T16:13:27;98998.48;;;14.01;71.58
41467;BME280;27205;53.690;19.948;2022-09-29T16:18:42;99001.11;;;13.67;71.22
41467;BME280;27205;53.690;19.948;2022-09-29T16:29:34;99002.02;;;11.91;72.13
41467;BME280;27205;53.690;19.948;2022-09-29T16:34:38;99004.04;;;11.43;72.13
41467;BME280;27205;53.690;19.948;2022-09-29T16:39:44;99009.09;;;10.99;72.23
41467;BME280;27205;53.690;19.948;2022-09-29T16:44:48;99009.92;;;10.59;72.50
41467;BME280;27205;53.690;19.948;2022-09-29T16:50:01;99014.83;;;10.28;72.72
41467;BME280;27205;53.690;19.948;2022-09-29T16:55:16;99019.85;;;10.05;72.75
41467;BME280;27205;53.690;19.948;2022-09-29T17:00:24;99019.72;;;9.81;72.93
41467;BME280;27205;53.690;19.948;2022-09-29T17:05:29;99020.32;;;9.60;73.19
41467;BME280;27205;53.690;19.948;2022-09-29T17:10:38;99022.81;;;9.45;73.60
41467;BME280;27205;53.690;19.948;2022-09-29T17:15:44;99021.95;;;9.31;73.91
41467;BME280;27205;53.690;19.948;2022-09-29T17:20:49;99028.96;;;9.19;74.07
41467;BME280;27205;53.690;19.948;2022-09-29T17:25:54;99025.11;;;9.03;73.89
41467;BME280;27205;53.690;19.948;2022-09-29T17:31:18;99030.89;;;8.86;74.21
41467;BME280;27205;53.690;19.948;2022-09-29T17:36:21;99035.81;;;8.70;74.71
41467;BME280;27205;53.690;19.948;2022-09-29T17:41:26;99038.71;;;8.59;74.96
41467;BME280;27205;53.690;19.948;2022-09-29T17:46:30;99038.98;;;8.50;74.85
41467;BME280;27205;53.690;19.948;2022-09-29T17:51:34;99041.48;;;8.41;75.14
41467;BME280;27205;53.690;19.948;2022-09-29T17:56:41;99050.19;;;8.33;75.61
41467;BME280;27205;53.690;19.948;2022-09-29T18:01:46;99057.66;;;8.26;75.85
41467;BME280;27205;53.690;19.948;2022-09-29T18:06:52;99057.50;;;8.22;75.98
41467;BME280;27205;53.690;19.948;2022-09-29T18:11:55;99058.61;;;8.14;75.81
41467;BME280;27205;53.690;19.948;2022-09-29T18:17:03;99063.27;;;8.11;76.13
41467;BME280;27205;53.690;19.948;2022-09-29T18:22:07;99067.48;;;8.04;76.50
41467;BME280;27205;53.690;19.948;2022-09-29T18:27:11;99068.19;;;7.98;76.69
41467;BME280;27205;53.690;19.948;2022-09-29T18:32:17;99072.47;;;7.94;77.21
41467;BME280;27205;53.690;19.948;2022-09-29T18:37:21;99078.73;;;7.91;77.31
41467;BME280;27205;53.690;19.948;2022-09-29T18:42:24;99081.79;;;7.87;77.48
41467;BME280;27205;53.690;19.948;2022-09-29T18:47:29;99087.41;;;7.83;77.68
41467;BME280;27205;53.690;19.948;2022-09-29T18:52:33;99090.13;;;7.79;78.02
41467;BME280;27205;53.690;19.948;2022-09-29T18:57:45;99096.43;;;7.75;78.39
41467;BME280;27205;53.690;19.948;2022-09-29T19:02:49;99107.23;;;7.74;78.35
41467;BME280;27205;53.690;19.948;2022-09-29T19:07:55;99112.58;;;7.72;78.68
41467;BME280;27205;53.690;19.948;2022-09-29T19:13:02;99114.77;;;7.68;78.78
41467;BME280;27205;53.690;19.948;2022-09-29T19:18:07;99123.11;;;7.63;78.92
41467;BME280;27205;53.690;19.948;2022-09-29T19:23:10;99126.50;;;7.56;79.09
41467;BME280;27205;53.690;19.948;2022-09-29T19:28:15;99130.02;;;7.52;79.14
41467;BME280;27205;53.690;19.948;2022-09-29T19:33:21;99133.34;;;7.46;78.92
41467;BME280;27205;53.690;19.948;2022-09-29T19:38:24;99135.10;;;7.39;79.38
41467;BME280;27205;53.690;19.948;2022-09-29T19:43:28;99135.79;;;7.35;80.00
41467;BME280;27205;53.690;19.948;2022-09-29T19:48:31;99133.02;;;7.29;80.04
41467;BME280;27205;53.690;19.948;2022-09-29T19:53:34;99135.95;;;7.26;80.12
41467;BME280;27205;53.690;19.948;2022-09-29T19:58:40;99139.78;;;7.21;80.11
41467;BME280;27205;53.690;19.948;2022-09-29T20:03:43;99150.01;;;7.17;80.65
41467;BME280;27205;53.690;19.948;2022-09-29T20:08:50;99153.54;;;7.17;80.73
41467;BME280;27205;53.690;19.948;2022-09-29T20:13:53;99153.87;;;7.16;80.72
41467;BME280;27205;53.690;19.948;2022-09-29T20:18:56;99150.67;;;7.16;81.10
41467;BME280;27205;53.690;19.948;2022-09-29T20:24:00;99157.48;;;7.16;81.15
41467;BME280;27205;53.690;19.948;2022-09-29T20:29:04;99159.73;;;7.15;81.18
41467;BME280;27205;53.690;19.948;2022-09-29T20:34:09;99169.20;;;7.13;81.37
41467;BME280;27205;53.690;19.948;2022-09-29T20:39:15;99173.50;;;7.10;81.75
41467;BME280;27205;53.690;19.948;2022-09-29T20:44:24;99180.34;;;6.98;81.76
41467;BME280;27205;53.690;19.948;2022-09-29T20:49:28;99188.08;;;6.92;81.86
41467;BME280;27205;53.690;19.948;2022-09-29T20:54:31;99186.32;;;6.88;81.94
41467;BME280;27205;53.690;19.948;2022-09-29T20:59:35;99195.15;;;6.84;82.04
41467;BME280;27205;53.690;19.948;2022-09-29T21:04:38;99200.59;;;6.79;82.02
41467;BME280;27205;53.690;19.948;2022-09-29T21:09:42;99208.81;;;6.75;82.05
41467;BME280;27205;53.690;19.948;2022-09-29T21:14:45;99211.69;;;6.72;82.11
41467;BME280;27205;53.690;19.948;2022-09-29T21:19:49;99219.80;;;6.71;82.28
41467;BME280;27205;53.690;19.948;2022-09-29T21:24:52;99222.90;;;6.71;82.31
41467;BME280;27205;53.690;19.948;2022-09-29T21:29:55;99220.59;;;6.73;82.46
41467;BME280;27205;53.690;19.948;2022-09-29T21:34:58;99218.73;;;6.74;83.17
41467;BME280;27205;53.690;19.948;2022-09-29T21:40:03;99227.67;;;6.73;83.04
41467;BME280;27205;53.690;19.948;2022-09-29T21:45:07;99228.59;;;6.70;83.39
41467;BME280;27205;53.690;19.948;2022-09-29T21:50:12;99230.15;;;6.67;83.38
41467;BME280;27205;53.690;19.948;2022-09-29T21:55:16;99230.55;;;6.63;83.37
41467;BME280;27205;53.690;19.948;2022-09-29T22:00:19;99227.49;;;6.60;83.46
41467;BME280;27205;53.690;19.948;2022-09-29T22:05:22;99228.38;;;6.58;83.41
41467;BME280;27205;53.690;19.948;2022-09-29T22:10:26;99233.63;;;6.54;83.63
41467;BME280;27205;53.690;19.948;2022-09-29T22:15:31;99232.44;;;6.53;83.91
41467;BME280;27205;53.690;19.948;2022-09-29T22:20:36;99225.29;;;6.54;84.08
41467;BME280;27205;53.690;19.948;2022-09-29T22:25:44;99226.42;;;6.53;84.32
41467;BME280;27205;53.690;19.948;2022-09-29T22:30:48;99233.57;;;6.57;84.33
41467;BME280;27205;53.690;19.948;2022-09-29T22:35:55;99244.73;;;6.56;84.40
41467;BME280;27205;53.690;19.948;2022-09-29T22:40:59;99254.66;;;6.52;84.56
41467;BME280;27205;53.690;19.948;2022-09-29T22:46:02;99266.39;;;6.50;84.76
41467;BME280;27205;53.690;19.948;2022-09-29T22:51:06;99274.05;;;6.49;84.69
41467;BME280;27205;53.690;19.948;2022-09-29T22:56:14;99280.65;;;6.44;84.62
41467;BME280;27205;53.690;19.948;2022-09-29T23:01:18;99289.31;;;6.41;84.93
41467;BME280;27205;53.690;19.948;2022-09-29T23:06:24;99289.08;;;6.39;84.91
41467;BME280;27205;53.690;19.948;2022-09-29T23:11:27;99296.86;;;6.38;84.98
41467;BME280;27205;53.690;19.948;2022-09-29T23:16:33;99298.13;;;6.38;85.26
41467;BME280;27205;53.690;19.948;2022-09-29T23:21:36;99304.94;;;6.36;85.46
41467;BME280;27205;53.690;19.948;2022-09-29T23:26:40;99306.42;;;6.34;85.79
41467;BME280;27205;53.690;19.948;2022-09-29T23:31:43;99309.47;;;6.32;85.75
41467;BME280;27205;53.690;19.948;2022-09-29T23:36:51;99313.02;;;6.32;85.73
41467;BME280;27205;53.690;19.948;2022-09-29T23:41:55;99313.97;;;6.31;85.80
41467;BME280;27205;53.690;19.948;2022-09-29T23:46:58;99317.77;;;6.32;86.07
41467;BME280;27205;53.690;19.948;2022-09-29T23:52:02;99319.28;;;6.31;86.18
41467;BME280;27205;53.690;19.948;2022-09-29T23:57:06;99321.27;;;6.33;86.42
